Terminal Aerodrome Forecast
Issued by NWS

Home | Current Version | Previous Version | Text Only | Print | Product List | Glossary Off
Versions: 1 2 3 4 5 6 7 8 9 10 11 12 13 14 15 16 17 18

000
FTUS43 KUNR 231500 AAA
TAFGCC
TAF AMD
KGCC 231543Z 2316/2412 30020G30KT P6SM SCT150
     FM231700 31026G36KT P6SM BKN050
      TEMPO 2318/2322 3SM -SHSN BKN030
     FM240000 30011KT P6SM SCT250
      AMD NOT SKED=

USA.gov is the U.S. government's official web portal to all federal, state and local government web resources and services.